Time;durP1;ratioP1;P1;durP2;ratioP2;P2;SDS_P1;SDS_P2;PMS_P1;PMS_P2;Temp;Humidity;BMP_temperature;BMP_pressure;BME280_temperature;BME280_humidity;BME280_pressure;Samples;Min_cycle;Max_cycle;Signal;HPM_P1;HPM_P2
2023/10/22 00:00:28;;;;;;;29.17;21.20;;;;;;;14.65;100.00;98466.16;4974138;28;20062;-87
2023/10/22 00:02:53;;;;;;;26.13;20.73;;;;;;;14.65;100.00;98455.66;4974139;28;20049;-87
2023/10/22 00:05:19;;;;;;;26.00;20.27;;;;;;;14.71;100.00;98460.41;4974069;28;20030;-87
2023/10/22 00:07:44;;;;;;;28.00;22.05;;;;;;;14.74;100.00;98465.38;4974324;28;20462;-87
2023/10/22 00:10:09;;;;;;;24.52;20.27;;;;;;;14.65;100.00;98443.38;4990724;28;20030;-87
2023/10/22 00:12:35;;;;;;;28.13;23.10;;;;;;;14.80;100.00;98464.91;5006686;28;20469;-87
2023/10/22 00:15:00;;;;;;;24.95;21.08;;;;;;;14.67;100.00;98443.28;4995021;28;20026;-86
2023/10/22 00:17:26;;;;;;;28.27;23.05;;;;;;;14.74;100.00;98454.91;4994619;28;20053;-86
2023/10/22 00:19:51;;;;;;;30.05;22.30;;;;;;;14.76;100.00;98468.72;4994808;28;20034;-86
2023/10/22 00:22:17;;;;;;;29.17;22.80;;;;;;;14.45;100.00;98424.06;4994715;28;20113;-87
2023/10/22 00:24:43;;;;;;;26.90;21.77;;;;;;;14.64;100.00;98459.25;4994823;28;20490;-87
2023/10/22 00:27:09;;;;;;;29.52;22.20;;;;;;;14.61;100.00;98454.25;5014193;28;20104;-86
2023/10/22 00:29:34;;;;;;;30.17;23.00;;;;;;;14.47;100.00;98423.91;5014143;28;20841;-86
2023/10/22 00:32:00;;;;;;;26.42;22.58;;;;;;;14.70;100.00;98450.88;5031930;28;20051;-86
2023/10/22 00:34:25;;;;;;;27.92;21.85;;;;;;;14.51;100.00;98420.13;5013858;28;20026;-86
2023/10/22 00:36:51;;;;;;;26.20;20.52;;;;;;;14.49;100.00;98422.03;5014366;28;20029;-86
2023/10/22 00:39:16;;;;;;;25.58;19.58;;;;;;;14.60;100.00;98448.19;5014115;28;20076;-87
2023/10/22 00:41:41;;;;;;;26.83;20.17;;;;;;;14.56;100.00;98454.63;5014233;28;20064;-86
2023/10/22 00:44:07;;;;;;;27.02;20.17;;;;;;;14.58;100.00;98450.13;5014168;28;20029;-87
2023/10/22 00:46:32;;;;;;;28.48;20.92;;;;;;;14.56;100.00;98444.16;5013899;28;20099;-87
2023/10/22 00:48:58;;;;;;;28.75;21.05;;;;;;;14.70;100.00;98453.50;5013998;28;20056;-87
2023/10/22 00:51:24;;;;;;;20.30;17.85;;;;;;;14.72;100.00;98441.94;5013990;28;20025;-87
2023/10/22 00:53:51;;;;;;;27.23;19.95;;;;;;;14.75;100.00;98446.09;5014190;28;20030;-87
2023/10/22 00:56:17;;;;;;;23.05;17.98;;;;;;;14.68;100.00;98431.84;5014215;28;20111;-87
2023/10/22 00:58:43;;;;;;;26.00;19.00;;;;;;;14.78;100.00;98458.94;5014009;28;20088;-87
2023/10/22 01:01:12;;;;;;;24.05;18.00;;;;;;;14.70;100.00;98461.34;5015616;28;20025;-87
2023/10/22 01:03:38;;;;;;;25.02;18.85;;;;;;;14.74;100.00;98447.03;5035590;28;20061;-86
2023/10/22 01:06:04;;;;;;;23.85;19.25;;;;;;;14.76;100.00;98433.81;5018129;28;20128;-87
2023/10/22 01:08:32;;;;;;;20.35;17.10;;;;;;;14.79;100.00;98458.00;5035564;28;20021;-87
2023/10/22 01:11:08;;;;;;;20.70;16.25;;;;;;;14.60;100.00;98427.22;5035759;28;20025;-87
2023/10/22 01:13:33;;;;;;;23.13;17.63;;;;;;;14.76;100.00;98455.63;5035374;28;20029;-87
2023/10/22 01:15:58;;;;;;;34.67;26.40;;;;;;;14.64;100.00;98441.72;5017702;28;20063;-86
2023/10/22 01:18:24;;;;;;;63.83;46.35;;;;;;;14.76;100.00;98455.63;5017753;28;20022;-87
2023/10/22 01:20:50;;;;;;;56.22;40.90;;;;;;;14.81;100.00;98445.59;5017806;28;20029;-87
2023/10/22 01:23:15;;;;;;;37.88;28.73;;;;;;;14.84;100.00;98455.81;5017772;28;20477;-87
2023/10/22 01:25:40;;;;;;;28.80;21.75;;;;;;;14.80;100.00;98445.72;5035332;28;20036;-87
2023/10/22 01:28:06;;;;;;;25.08;19.23;;;;;;;14.84;100.00;98458.44;5017472;28;20048;-88
2023/10/22 01:30:31;;;;;;;21.60;16.67;;;;;;;14.73;100.00;98438.34;5017143;28;20036;-87
2023/10/22 01:32:56;;;;;;;23.52;19.08;;;;;;;14.82;100.00;98449.84;5017729;28;20030;-87
2023/10/22 01:35:22;;;;;;;32.17;24.83;;;;;;;14.76;100.00;98421.53;5017375;28;20025;-87
2023/10/22 01:37:47;;;;;;;33.70;25.80;;;;;;;14.63;100.00;98400.78;5017501;28;20546;-87
2023/10/22 01:40:13;;;;;;;32.95;26.77;;;;;;;14.56;100.00;98399.59;5017331;28;20044;-87
2023/10/22 01:42:38;;;;;;;33.92;26.55;;;;;;;14.74;100.00;98428.69;5017002;28;20025;-87
2023/10/22 01:45:06;;;;;;;35.70;28.25;;;;;;;14.63;100.00;98439.25;5017192;28;20029;-87
2023/10/22 01:47:31;;;;;;;35.75;29.35;;;;;;;14.61;100.00;98462.94;5034890;28;20104;-87
2023/10/22 01:49:57;;;;;;;37.40;29.50;;;;;;;14.53;100.00;98449.63;5017260;28;20030;-87
2023/10/22 01:52:23;;;;;;;35.03;28.48;;;;;;;14.47;100.00;98437.03;5034742;28;20108;-87
2023/10/22 01:54:49;;;;;;;38.65;30.55;;;;;;;14.55;100.00;98452.97;5034891;28;20040;-87
2023/10/22 01:57:16;;;;;;;35.75;27.80;;;;;;;14.50;100.00;98444.66;5017209;28;20504;-87
2023/10/22 01:59:42;;;;;;;35.45;28.88;;;;;;;14.41;100.00;98440.97;5016781;28;20029;-87
2023/10/22 02:02:07;;;;;;;37.75;27.70;;;;;;;14.29;100.00;98420.19;5016979;28;20117;-86
2023/10/22 02:04:33;;;;;;;41.35;31.98;;;;;;;14.42;100.00;98434.78;5016680;28;20052;-87
2023/10/22 02:06:58;;;;;;;36.42;29.92;;;;;;;14.30;100.00;98411.38;5016913;28;20050;-87
2023/10/22 02:09:24;;;;;;;35.78;28.90;;;;;;;14.42;100.00;98433.94;5034431;28;20447;-87
2023/10/22 02:11:50;;;;;;;35.75;28.15;;;;;;;14.34;100.00;98423.28;5033980;28;20057;-87
2023/10/22 02:14:16;;;;;;;35.38;28.58;;;;;;;14.16;100.00;98399.41;5016606;28;20030;-87
2023/10/22 02:16:41;;;;;;;33.03;27.40;;;;;;;14.17;100.00;98415.00;5016609;28;20838;-87
2023/10/22 02:19:07;;;;;;;34.95;27.73;;;;;;;13.91;100.00;98379.63;5016728;28;20029;-87
2023/10/22 02:21:32;;;;;;;33.92;26.50;;;;;;;14.08;100.00;98401.81;5016357;28;20028;-87
2023/10/22 02:23:58;;;;;;;34.47;28.23;;;;;;;14.26;100.00;98425.69;5016486;28;20041;-87
2023/10/22 02:26:24;;;;;;;36.38;28.90;;;;;;;14.25;100.00;98429.25;5016250;28;20059;-87
2023/10/22 02:28:49;;;;;;;35.90;27.02;;;;;;;14.22;100.00;98419.84;4999797;28;20404;-87
2023/10/22 02:31:15;;;;;;;36.35;29.27;;;;;;;14.15;100.00;98422.13;5016532;28;20022;-87
2023/10/22 02:33:40;;;;;;;41.50;30.63;;;;;;;14.21;100.00;98416.41;5016302;28;20040;-87
2023/10/22 02:36:06;;;;;;;44.85;32.78;;;;;;;14.16;100.00;98413.34;5034222;28;20037;-87
2023/10/22 02:38:35;;;;;;;42.45;33.95;;;;;;;14.13;100.00;98404.88;5016183;28;20362;-86
2023/10/22 02:41:02;;;;;;;44.17;33.40;;;;;;;13.95;100.00;98381.03;4972649;28;20035;-87
2023/10/22 02:43:28;;;;;;;38.90;31.95;;;;;;;14.00;100.00;98401.59;4956238;28;20097;-87
2023/10/22 02:45:54;;;;;;;43.75;33.63;;;;;;;13.82;100.00;98372.47;4956562;28;20035;-87
2023/10/22 02:48:20;;;;;;;46.15;32.10;;;;;;;14.01;100.00;98408.50;4972740;28;20125;-87
2023/10/22 02:50:46;;;;;;;41.95;34.25;;;;;;;14.05;100.00;98421.22;4956044;28;20041;-87
2023/10/22 02:53:12;;;;;;;41.85;33.45;;;;;;;13.96;100.00;98403.63;4972602;28;20039;-87
2023/10/22 02:55:38;;;;;;;42.92;34.03;;;;;;;14.04;100.00;98416.13;4956088;28;20479;-87
2023/10/22 02:58:04;;;;;;;50.53;37.65;;;;;;;13.92;100.00;98399.59;4972544;28;20066;-87
2023/10/22 03:00:29;;;;;;;47.42;37.22;;;;;;;14.08;100.00;98428.81;4955928;28;20108;-87
2023/10/22 03:02:55;;;;;;;58.28;40.30;;;;;;;13.93;100.00;98412.56;4952419;29;20038;-87
2023/10/22 03:05:20;;;;;;;56.28;41.80;;;;;;;13.97;100.00;98426.22;4952965;29;20031;-87
2023/10/22 03:07:46;;;;;;;51.97;39.22;;;;;;;13.70;100.00;98387.41;4936675;29;20043;-87
2023/10/22 03:10:12;;;;;;;61.10;43.42;;;;;;;13.82;100.00;98416.97;4952814;29;20154;-87
2023/10/22 03:12:37;;;;;;;58.72;43.05;;;;;;;13.79;100.00;98425.91;4966631;28;20591;-87
2023/10/22 03:15:03;;;;;;;61.47;43.85;;;;;;;13.71;100.00;98418.66;4992917;28;20089;-87
2023/10/22 03:17:29;;;;;;;64.45;46.10;;;;;;;13.62;100.00;98403.69;4992498;28;20038;-87
2023/10/22 03:19:54;;;;;;;61.03;43.13;;;;;;;13.68;100.00;98418.06;4976544;28;20556;-87
2023/10/22 03:22:20;;;;;;;58.40;44.15;;;;;;;13.27;100.00;98348.09;4993931;28;20117;-87
2023/10/22 03:24:49;;;;;;;51.47;40.38;;;;;;;13.67;100.00;98408.56;4992796;28;20030;-87
2023/10/22 03:27:15;;;;;;;56.30;41.10;;;;;;;13.64;100.00;98414.03;4993161;28;20583;-87
2023/10/22 03:29:40;;;;;;;48.50;35.72;;;;;;;13.55;100.00;98405.13;4975354;28;20041;-87
2023/10/22 03:32:08;;;;;;;45.50;36.88;;;;;;;13.73;100.00;98439.47;4992927;28;20053;-87
2023/10/22 03:34:33;;;;;;;50.38;38.75;;;;;;;13.44;100.00;98386.81;4992645;28;20114;-86
2023/10/22 03:37:00;;;;;;;41.55;33.13;;;;;;;13.68;100.00;98413.66;4991491;28;20113;-87
2023/10/22 03:39:25;;;;;;;43.90;35.67;;;;;;;13.79;100.00;98425.09;4975206;28;20034;-86
2023/10/22 03:41:51;;;;;;;45.92;35.08;;;;;;;13.77;100.00;98416.50;4990964;28;20030;-86
2023/10/22 03:44:16;;;;;;;35.00;31.00;;;;;;;13.57;100.00;98390.16;4992716;28;20121;-86
2023/10/22 03:46:41;;;;;;;35.20;29.70;;;;;;;13.46;100.00;98385.75;4974908;28;20105;-87
2023/10/22 03:49:07;;;;;;;35.72;29.77;;;;;;;13.72;100.00;98425.56;4992610;28;20049;-86
2023/10/22 03:51:32;;;;;;;37.95;32.13;;;;;;;13.69;100.00;98414.50;4992315;28;20410;-87
2023/10/22 03:53:58;;;;;;;36.05;31.50;;;;;;;13.57;100.00;98391.91;4975018;28;20034;-86
2023/10/22 03:56:23;;;;;;;39.95;30.90;;;;;;;13.54;100.00;98390.38;4991140;28;20053;-87
2023/10/22 03:58:49;;;;;;;38.17;31.25;;;;;;;13.68;100.00;98411.06;4992330;28;20437;-86
2023/10/22 04:01:14;;;;;;;38.53;31.20;;;;;;;13.79;100.00;98433.78;4975037;28;20049;-87
2023/10/22 04:03:39;;;;;;;41.03;32.28;;;;;;;13.77;100.00;98419.97;4991947;28;20049;-87
2023/10/22 04:06:05;;;;;;;46.08;36.97;;;;;;;13.79;100.00;98419.84;4974873;28;20030;-87
2023/10/22 04:08:30;;;;;;;47.72;37.63;;;;;;;13.85;100.00;98425.41;4974596;28;20386;-87
2023/10/22 04:10:55;;;;;;;40.42;33.08;;;;;;;13.85;100.00;98428.03;4992288;28;20394;-88
2023/10/22 04:13:22;;;;;;;48.25;37.75;;;;;;;13.94;100.00;98435.16;4989617;28;20418;-87
2023/10/22 04:15:48;;;;;;;48.92;36.58;;;;;;;13.88;100.00;98417.31;4989443;28;20042;-87
2023/10/22 04:18:15;;;;;;;51.47;38.58;;;;;;;13.76;100.00;98401.78;4989767;28;20043;-87
2023/10/22 04:20:41;;;;;;;46.72;36.55;;;;;;;13.84;100.00;98421.13;4989192;28;20042;-87
2023/10/22 04:23:08;;;;;;;44.53;33.50;;;;;;;13.88;100.00;98421.72;4973260;28;20520;-87
2023/10/22 04:25:42;;;;;;;49.15;34.47;;;;;;;13.77;100.00;98404.25;4989162;28;20652;-87
2023/10/22 04:28:09;;;;;;;44.65;34.78;;;;;;;13.89;100.00;98421.59;4951689;28;1110782;-87
2023/10/22 04:30:41;;;;;;;45.95;34.92;;;;;;;13.79;100.00;98396.31;4990116;28;20042;-86
2023/10/22 04:33:07;;;;;;;41.13;32.47;;;;;;;13.91;100.00;98417.09;4974017;28;20433;-87
2023/10/22 04:35:34;;;;;;;44.30;34.60;;;;;;;14.01;100.00;98424.19;4973648;28;20031;-87
2023/10/22 04:38:00;;;;;;;46.67;33.85;;;;;;;14.08;100.00;98430.63;4990134;28;20089;-87
2023/10/22 04:40:26;;;;;;;47.88;34.30;;;;;;;13.88;100.00;98377.25;4973936;28;20041;-87
2023/10/22 04:42:58;;;;;;;48.60;34.75;;;;;;;14.10;100.00;98413.81;4973441;28;20125;-87
2023/10/22 04:45:23;;;;;;;43.85;33.92;;;;;;;14.14;100.00;98415.22;4990311;28;20114;-87
2023/10/22 04:47:48;;;;;;;45.35;34.90;;;;;;;14.23;100.00;98422.34;4973624;28;20023;-86
2023/10/22 04:50:14;;;;;;;47.22;34.95;;;;;;;14.25;100.00;98409.13;4990087;28;20034;-87
2023/10/22 04:52:39;;;;;;;38.38;30.38;;;;;;;14.18;100.00;98405.34;4973368;28;20045;-87
2023/10/22 04:55:05;;;;;;;41.63;33.35;;;;;;;14.23;100.00;98408.41;4973717;28;20038;-86
2023/10/22 04:57:30;;;;;;;51.65;40.92;;;;;;;14.00;100.00;98393.75;4988899;28;20039;-87
2023/10/22 04:59:56;;;;;;;46.88;35.85;;;;;;;14.24;100.00;98428.41;4992247;28;20080;-87
2023/10/22 05:02:21;;;;;;;46.38;36.40;;;;;;;14.27;100.00;98417.69;4991047;28;20423;-87
2023/10/22 05:04:49;;;;;;;41.13;32.92;;;;;;;14.26;100.00;98431.75;4974615;28;20037;-87
2023/10/22 05:07:14;;;;;;;41.42;31.80;;;;;;;14.19;100.00;98418.31;4990834;28;20022;-87
2023/10/22 05:09:40;;;;;;;46.22;32.25;;;;;;;14.13;100.00;98402.28;4990993;28;20037;-87
2023/10/22 05:12:06;;;;;;;42.78;31.98;;;;;;;14.12;100.00;98404.06;4992530;28;20026;-86
2023/10/22 05:14:31;;;;;;;40.80;32.30;;;;;;;14.19;100.00;98418.31;4991033;28;20038;-86
2023/10/22 05:16:56;;;;;;;38.38;30.23;;;;;;;14.27;100.00;98422.09;4990907;28;20474;-86
2023/10/22 05:19:22;;;;;;;43.15;32.83;;;;;;;14.14;100.00;98396.91;4992688;28;20038;-87
2023/10/22 05:21:47;;;;;;;38.03;30.40;;;;;;;14.30;100.00;98420.06;4990598;28;20111;-86
2023/10/22 05:24:12;;;;;;;39.55;29.05;;;;;;;14.08;100.00;98388.72;4992284;28;20386;-86
2023/10/22 05:26:38;;;;;;;36.60;29.00;;;;;;;14.34;100.00;98420.66;4990619;28;20070;-86
2023/10/22 05:29:03;;;;;;;33.00;26.63;;;;;;;14.38;100.00;98425.50;4974859;28;20070;-86
2023/10/22 05:31:29;;;;;;;39.45;27.75;;;;;;;14.37;100.00;98425.66;4974692;28;20524;-87
2023/10/22 05:33:55;;;;;;;31.17;25.35;;;;;;;14.41;100.00;98430.50;4991919;28;20117;-86
2023/10/22 05:36:21;;;;;;;36.65;28.80;;;;;;;14.47;100.00;98430.00;4974463;28;20169;-86
2023/10/22 05:38:47;;;;;;;36.42;29.38;;;;;;;14.45;100.00;98417.97;4991818;28;20030;-86
2023/10/22 05:41:25;;;;;;;37.47;27.83;;;;;;;13.98;100.00;98346.75;4992156;28;20038;-86
2023/10/22 05:43:52;;;;;;;34.72;25.70;;;;;;;14.51;100.00;98437.63;4991800;28;20023;-86
2023/10/22 05:46:17;;;;;;;34.22;25.55;;;;;;;14.12;100.00;98384.91;4992206;28;20364;-86
2023/10/22 05:48:43;;;;;;;28.45;23.92;;;;;;;14.50;100.00;98435.97;4977739;28;20034;-86
2023/10/22 05:51:08;;;;;;;31.05;23.70;;;;;;;14.47;100.00;98432.59;4995646;28;20550;-86
2023/10/22 05:53:34;;;;;;;33.10;24.67;;;;;;;14.57;100.00;98445.81;4994319;28;20101;-86
2023/10/22 05:55:59;;;;;;;29.67;24.58;;;;;;;14.09;100.00;98380.75;4995361;28;20180;-87
2023/10/22 05:58:25;;;;;;;33.47;26.67;;;;;;;14.61;100.00;98465.56;4978026;28;20374;-86
2023/10/22 06:00:51;;;;;;;30.65;26.33;;;;;;;14.53;100.00;98446.19;4995173;28;20031;-86
2023/10/22 06:03:16;;;;;;;28.95;24.52;;;;;;;14.47;100.00;98437.84;4977584;28;20062;-87
2023/10/22 06:05:42;;;;;;;31.95;26.95;;;;;;;14.53;100.00;98464.53;4973012;28;20039;-87
2023/10/22 06:08:07;;;;;;;31.42;25.92;;;;;;;14.54;100.00;98464.44;4973705;28;20047;-87
2023/10/22 06:10:39;;;;;;;32.55;25.70;;;;;;;14.41;100.00;98451.47;4957096;28;20038;-87
2023/10/22 06:13:05;;;;;;;37.65;32.33;;;;;;;14.60;100.00;98478.81;4973295;28;20030;-86
2023/10/22 06:15:30;;;;;;;33.42;28.05;;;;;;;14.43;100.00;98448.72;4957149;28;20125;-86
2023/10/22 06:17:56;;;;;;;36.10;30.08;;;;;;;14.31;100.00;98424.34;4972986;28;20114;-86
2023/10/22 06:20:21;;;;;;;39.25;33.72;;;;;;;14.25;100.00;98437.13;4973423;28;20051;-86
2023/10/22 06:22:46;;;;;;;40.20;34.65;;;;;;;14.20;100.00;98445.34;4972963;28;20054;-85
2023/10/22 06:25:11;;;;;;;37.63;31.95;;;;;;;14.27;100.00;98467.44;4973150;28;20038;-86
2023/10/22 06:27:37;;;;;;;33.03;28.00;;;;;;;14.27;100.00;98480.53;4953416;29;20082;-86
2023/10/22 06:30:02;;;;;;;40.85;34.33;;;;;;;14.24;100.00;98467.69;4953463;29;20076;-86
2023/10/22 06:32:28;;;;;;;37.85;33.78;;;;;;;14.07;100.00;98439.41;4953709;29;20047;-86
2023/10/22 06:34:53;;;;;;;37.95;32.90;;;;;;;14.25;100.00;98479.84;4953738;29;20043;-86
2023/10/22 06:37:18;;;;;;;32.45;28.52;;;;;;;14.13;100.00;98471.19;4953643;29;20043;-86
2023/10/22 06:39:44;;;;;;;31.95;28.00;;;;;;;14.22;100.00;98477.47;4953353;29;20462;-86
2023/10/22 06:42:10;;;;;;;31.17;27.08;;;;;;;14.23;100.00;98486.97;4953374;29;20046;-86
2023/10/22 06:44:36;;;;;;;28.38;24.73;;;;;;;14.03;100.00;98440.59;4953433;29;20031;-86
2023/10/22 06:47:02;;;;;;;28.98;25.77;;;;;;;14.22;100.00;98480.09;4953141;29;20043;-86
2023/10/22 06:49:27;;;;;;;25.95;23.25;;;;;;;14.27;100.00;98484.94;4953361;29;20047;-85
2023/10/22 06:51:53;;;;;;;28.10;25.10;;;;;;;14.29;100.00;98476.03;4953115;29;20427;-86
2023/10/22 06:54:18;;;;;;;26.05;22.80;;;;;;;14.29;100.00;98478.66;4953339;29;20550;-86
2023/10/22 06:56:43;;;;;;;25.63;23.00;;;;;;;14.32;100.00;98488.84;4953124;29;20035;-86
2023/10/22 06:59:09;;;;;;;30.52;22.80;;;;;;;14.30;100.00;98488.16;4969905;28;20034;-86
2023/10/22 07:01:34;;;;;;;27.23;23.50;;;;;;;14.26;100.00;98483.28;4994158;28;20034;-86
2023/10/22 07:03:59;;;;;;;25.70;21.65;;;;;;;14.37;100.00;98497.19;4994040;28;20219;-86
2023/10/22 07:06:24;;;;;;;24.92;21.77;;;;;;;14.20;100.00;98471.53;4994377;28;20031;-86
2023/10/22 07:08:50;;;;;;;27.05;22.70;;;;;;;14.21;100.00;98476.63;4976718;28;20600;-86
2023/10/22 07:11:15;;;;;;;27.10;24.23;;;;;;;14.31;100.00;98489.81;4994347;28;20031;-86
2023/10/22 07:13:40;;;;;;;23.63;21.33;;;;;;;14.29;100.00;98486.50;4994022;28;20060;-86
2023/10/22 07:16:07;;;;;;;24.65;21.90;;;;;;;14.26;100.00;98480.69;4992603;28;20636;-86
2023/10/22 07:18:32;;;;;;;23.63;21.13;;;;;;;14.40;100.00;98507.41;4992606;28;20386;-86
2023/10/22 07:20:59;;;;;;;26.15;23.35;;;;;;;14.30;100.00;98484.72;4993996;28;20034;-86
2023/10/22 07:23:25;;;;;;;26.10;22.73;;;;;;;14.02;100.00;98437.16;4971743;28;20045;-86
2023/10/22 07:25:56;;;;;;;28.08;24.23;;;;;;;14.43;100.00;98501.09;4955533;28;20406;-86
2023/10/22 07:28:21;;;;;;;23.13;19.45;;;;;;;14.21;100.00;98479.25;4971758;28;20051;-86
2023/10/22 07:30:47;;;;;;;23.00;20.15;;;;;;;14.17;100.00;98462.13;4971521;28;20367;-86
2023/10/22 07:33:13;;;;;;;26.27;22.20;;;;;;;14.34;100.00;98486.97;4971888;28;20054;-87
2023/10/22 07:35:38;;;;;;;27.88;24.88;;;;;;;13.98;100.00;98433.94;4971618;28;20031;-86
2023/10/22 07:38:03;;;;;;;29.67;25.27;;;;;;;14.36;100.00;98489.44;4971310;28;20096;-86
2023/10/22 07:40:29;;;;;;;28.67;25.35;;;;;;;14.22;100.00;98478.28;4971751;28;20054;-86
2023/10/22 07:42:54;;;;;;;29.48;24.52;;;;;;;14.32;100.00;98498.50;4971342;28;20039;-85
2023/10/22 07:45:19;;;;;;;24.58;21.77;;;;;;;14.32;100.00;98490.66;4955558;28;20023;-85
2023/10/22 07:47:45;;;;;;;26.02;22.63;;;;;;;14.41;100.00;98500.38;4971390;28;20069;-86
2023/10/22 07:50:10;;;;;;;27.23;24.27;;;;;;;14.21;100.00;98481.88;4971357;28;20065;-86
2023/10/22 07:52:36;;;;;;;25.92;22.95;;;;;;;14.38;100.00;98505.88;4971548;28;20030;-86
2023/10/22 07:55:03;;;;;;;29.00;23.65;;;;;;;14.31;100.00;98502.09;4970633;28;20074;-86
2023/10/22 07:57:28;;;;;;;25.33;22.30;;;;;;;14.30;100.00;98496.00;4991984;28;20389;-86
2023/10/22 07:59:55;;;;;;;29.25;22.70;;;;;;;14.26;100.00;98491.97;4991609;28;20030;-86
2023/10/22 08:02:21;;;;;;;27.35;22.48;;;;;;;14.10;100.00;98467.97;4970819;28;20126;-86
2023/10/22 08:04:47;;;;;;;23.50;21.00;;;;;;;14.22;100.00;98490.56;4954756;28;20133;-86
2023/10/22 08:07:12;;;;;;;22.60;20.08;;;;;;;14.35;100.00;98517.44;4971155;28;20042;-86
2023/10/22 08:09:38;;;;;;;24.88;20.85;;;;;;;14.27;100.00;98506.72;4970995;28;20489;-86
2023/10/22 08:12:03;;;;;;;24.10;21.27;;;;;;;14.35;100.00;98525.28;4971014;28;20118;-86
2023/10/22 08:14:29;;;;;;;24.23;20.48;;;;;;;14.41;100.00;98526.56;4971121;28;20073;-86
2023/10/22 08:16:54;;;;;;;23.85;21.02;;;;;;;14.38;100.00;98525.06;4970838;28;20039;-87
2023/10/22 08:19:20;;;;;;;27.45;22.85;;;;;;;14.37;100.00;98528.63;4954913;28;20411;-86
2023/10/22 08:21:45;;;;;;;24.77;22.05;;;;;;;14.27;100.00;98511.97;4954848;28;20130;-86
2023/10/22 08:24:10;;;;;;;24.08;20.52;;;;;;;14.39;100.00;98538.97;4954691;28;20085;-86
2023/10/22 08:26:36;;;;;;;24.05;21.35;;;;;;;14.41;100.00;98542.28;4970666;28;20095;-86
2023/10/22 08:29:02;;;;;;;22.52;20.08;;;;;;;14.04;100.00;98487.63;4970645;28;20042;-86
2023/10/22 08:31:27;;;;;;;27.40;21.77;;;;;;;14.43;100.00;98550.88;4970722;28;20093;-86
2023/10/22 08:33:52;;;;;;;28.73;24.05;;;;;;;14.46;100.00;98554.09;4985347;28;20482;-85
2023/10/22 08:36:18;;;;;;;38.75;28.45;;;;;;;14.40;100.00;98538.84;4975328;28;20560;-86
2023/10/22 08:38:43;;;;;;;35.63;28.95;;;;;;;14.22;100.00;98528.06;4991346;28;20490;-86
2023/10/22 08:41:20;;;;;;;36.40;28.95;;;;;;;14.19;100.00;98524.84;4974889;28;20073;-86
2023/10/22 08:43:47;;;;;;;35.65;29.13;;;;;;;13.99;100.00;98505.50;4991092;28;20478;-86
2023/10/22 08:46:13;;;;;;;34.78;28.08;;;;;;;14.19;100.00;98532.69;4992675;28;20037;-86
2023/10/22 08:48:39;;;;;;;33.85;27.73;;;;;;;14.26;100.00;98552.22;4992695;28;20023;-86
2023/10/22 08:51:05;;;;;;;31.13;26.48;;;;;;;14.13;100.00;98536.63;4991008;28;20462;-86
2023/10/22 08:53:31;;;;;;;32.00;26.08;;;;;;;14.19;100.00;98554.47;4992787;28;20065;-86
2023/10/22 08:55:58;;;;;;;28.33;23.75;;;;;;;14.12;100.00;98553.31;4974850;28;20044;-86
2023/10/22 08:58:24;;;;;;;27.13;22.38;;;;;;;14.19;100.00;98566.75;4974484;28;20108;-87
2023/10/22 09:00:49;;;;;;;26.08;22.92;;;;;;;14.20;100.00;98571.03;4990499;28;20054;-86
2023/10/22 09:03:17;;;;;;;24.30;20.52;;;;;;;14.22;100.00;98569.94;4991867;28;20482;-86
2023/10/22 09:05:43;;;;;;;22.63;19.55;;;;;;;14.07;100.00;98554.59;4990630;28;20034;-86
2023/10/22 09:08:09;;;;;;;24.50;19.85;;;;;;;14.14;100.00;98572.34;4990246;28;20049;-86
2023/10/22 09:10:36;;;;;;;21.40;18.50;;;;;;;14.23;100.00;98578.63;4990463;28;20034;-86
2023/10/22 09:13:07;;;;;;;21.95;18.67;;;;;;;14.18;100.00;98592.09;4991422;28;20470;-86
2023/10/22 09:15:39;;;;;;;20.85;18.50;;;;;;;14.19;100.00;98582.44;4991961;28;20482;-86
2023/10/22 09:18:05;;;;;;;21.33;18.65;;;;;;;14.06;100.00;98556.41;4991592;28;20482;-86
2023/10/22 09:20:32;;;;;;;22.48;19.85;;;;;;;14.18;100.00;98578.16;4931212;29;20127;-86
2023/10/22 09:23:29;;;;;;;21.02;18.25;;;;;;;14.23;100.00;98595.19;4949808;29;20130;-86
2023/10/22 09:25:56;;;;;;;28.38;22.92;;;;;;;14.04;100.00;98563.56;4915748;29;20650;-86
2023/10/22 09:28:27;;;;;;;45.78;36.65;;;;;;;14.21;100.00;98591.03;4915800;29;20416;-86
2023/10/22 09:30:58;;;;;;;24.63;21.27;;;;;;;14.00;100.00;98554.28;4915507;29;20068;-86
2023/10/22 09:33:52;;;;;;;27.85;22.27;;;;;;;14.24;100.00;98598.63;4916080;29;20463;-86
2023/10/22 09:36:23;;;;;;;32.13;26.95;;;;;;;14.12;100.00;98582.13;4841303;29;20149;-86
2023/10/22 09:38:50;;;;;;;74.65;49.72;;;;;;;14.26;100.00;98607.22;4859470;29;20085;-86
2023/10/22 09:41:27;;;;;;;46.83;34.85;;;;;;;14.23;100.00;98604.81;4859404;29;20125;-86
2023/10/22 09:43:53;;;;;;;27.00;21.48;;;;;;;14.15;100.00;98594.13;4859258;29;20075;-86
2023/10/22 09:46:19;;;;;;;24.55;20.33;;;;;;;14.10;100.00;98589.25;4859526;29;20137;-86
2023/10/22 09:48:50;;;;;;;27.33;23.50;;;;;;;14.12;100.00;98600.44;4843563;29;20061;-85
2023/10/22 09:51:17;;;;;;;23.80;19.97;;;;;;;13.94;100.00;98578.28;4858985;29;20037;-86
2023/10/22 09:53:50;;;;;;;20.25;17.40;;;;;;;13.94;100.00;98576.50;4843687;29;20668;-86
2023/10/22 09:56:19;;;;;;;27.25;24.45;;;;;;;14.03;100.00;98600.31;4858641;29;20509;-86
2023/10/22 09:58:47;;;;;;;22.48;20.20;;;;;;;14.05;100.00;98598.41;4858857;29;20029;-86
2023/10/22 10:01:13;;;;;;;18.75;16.08;;;;;;;13.86;100.00;98581.53;4882458;29;20558;-86
2023/10/22 10:03:40;;;;;;;18.27;14.93;;;;;;;14.07;100.00;98615.66;4917967;29;20523;-86
2023/10/22 10:06:09;;;;;;;16.40;14.68;;;;;;;14.02;100.00;98620.41;4934282;29;20046;-86
2023/10/22 10:08:39;;;;;;;18.05;15.80;;;;;;;13.98;100.00;98609.34;4933915;29;20040;-86
2023/10/22 10:11:08;;;;;;;18.55;16.25;;;;;;;13.95;100.00;98608.78;4917600;29;20043;-86
2023/10/22 10:13:35;;;;;;;18.75;16.65;;;;;;;13.88;100.00;98595.31;4986270;28;20049;-86
2023/10/22 10:16:03;;;;;;;17.75;15.90;;;;;;;13.83;100.00;98580.94;5004022;28;20133;-86
2023/10/22 10:19:00;;;;;;;17.45;15.50;;;;;;;13.99;100.00;98618.06;5003578;28;20036;-86
2023/10/22 10:21:45;;;;;;;21.70;17.73;;;;;;;13.98;100.00;98622.44;5020921;28;20582;-86
2023/10/22 10:24:25;;;;;;;18.95;16.95;;;;;;;13.95;100.00;98619.25;5002768;28;20029;-86
2023/10/22 10:26:57;;;;;;;17.35;15.50;;;;;;;13.93;100.00;98628.97;5004255;28;20061;-86
2023/10/22 10:29:31;;;;;;;17.73;15.38;;;;;;;13.83;100.00;98607.94;5019733;28;20062;-86
2023/10/22 10:32:15;;;;;;;15.40;13.80;;;;;;;13.69;100.00;98579.34;5005781;28;20060;-86
2023/10/22 10:34:48;;;;;;;12.88;10.30;;;;;;;13.70;100.00;98594.13;5018554;28;20033;-86
2023/10/22 10:37:25;;;;;;;13.88;10.70;;;;;;;13.71;100.00;98599.22;4979626;28;20034;-87
2023/10/22 10:39:52;;;;;;;11.18;10.02;;;;;;;13.77;100.00;98618.84;4978874;28;20043;-86
2023/10/22 10:42:30;;;;;;;9.75;8.13;;;;;;;13.61;100.00;98589.56;4981731;28;20173;-86
2023/10/22 10:44:55;;;;;;;9.13;7.97;;;;;;;13.82;100.00;98627.19;4981110;28;20074;-86
2023/10/22 10:47:21;;;;;;;9.23;7.38;;;;;;;13.77;100.00;98628.47;4980207;28;20045;-86
2023/10/22 10:50:10;;;;;;;8.70;7.80;;;;;;;13.68;100.00;98623.00;4981489;28;20022;-87
2023/10/22 10:52:38;;;;;;;10.32;8.43;;;;;;;13.02;100.00;98521.63;4978864;28;20035;-86
2023/10/22 10:55:32;;;;;;;9.43;8.52;;;;;;;13.63;100.00;98624.31;4983118;28;20041;-86
2023/10/22 10:57:59;;;;;;;7.63;6.82;;;;;;;13.75;100.00;98640.88;4916065;29;20044;-86
2023/10/22 11:00:30;;;;;;;4.53;4.13;;;;;;;13.53;100.00;98597.19;4924654;29;20485;-85
2023/10/22 11:03:01;;;;;;;4.35;3.95;;;;;;;13.66;100.00;98643.22;4916519;29;20048;-87
2023/10/22 11:05:37;;;;;;;3.90;3.50;;;;;;;13.61;100.00;98642.75;4855449;29;20034;-85
2023/10/22 11:08:04;;;;;;;4.80;4.20;;;;;;;13.61;100.00;98639.25;4875560;29;20265;-84